Time;durP1;ratioP1;P1;durP2;ratioP2;P2;SDS_P1;SDS_P2;PMS_P1;PMS_P2;Temp;Humidity;BMP_temperature;BMP_pressure;BME280_temperature;BME280_humidity;BME280_pressure;Samples;Min_cycle;Max_cycle;Signal;HPM_P1;HPM_P2
2023/03/19 00:02:03;;;;;;;28.92;15.32;;;;;;;-148.88;100.00;75846.28;5039535;28;20068;-79
2023/03/19 00:04:29;;;;;;;26.33;15.27;;;;;;;-148.88;100.00;75846.28;5021745;28;20013;-79
2023/03/19 00:06:54;;;;;;;37.30;30.50;;;;;;;-148.88;100.00;75852.38;5050453;28;20026;-77
2023/03/19 00:09:20;;;;;;;28.45;16.13;;;;;;;-148.88;100.00;75850.34;5050450;28;20488;-79
2023/03/19 00:11:47;;;;;;;37.33;31.75;;;;;;;-148.88;100.00;75866.59;5047065;28;20029;-79
2023/03/19 00:14:12;;;;;;;28.23;16.65;;;;;;;-148.88;100.00;75866.59;5021381;28;20021;-79
2023/03/19 00:16:38;;;;;;;29.67;15.48;;;;;;;-148.88;100.00;75870.66;5022439;28;20025;-79
2023/03/19 00:19:03;;;;;;;31.88;26.73;;;;;;;-148.88;100.00;75862.53;5021234;28;20480;-79
2023/03/19 00:21:31;;;;;;;24.88;14.30;;;;;;;-148.88;100.00;75872.69;5039604;28;20410;-79
2023/03/19 00:23:59;;;;;;;30.23;25.60;;;;;;;-148.88;100.00;75882.84;5020960;28;20021;-78
2023/03/19 00:26:26;;;;;;;22.00;13.45;;;;;;;-148.88;100.00;75886.91;5039380;28;20033;-79
2023/03/19 00:28:51;;;;;;;25.73;13.38;;;;;;;-148.88;100.00;75884.88;5038908;28;20551;-79
2023/03/19 00:31:16;;;;;;;29.00;25.17;;;;;;;-148.88;100.00;75882.84;5020783;28;20033;-78
2023/03/19 00:33:42;;;;;;;29.63;24.63;;;;;;;-148.88;100.00;75890.97;5039229;28;20022;-79
2023/03/19 00:36:09;;;;;;;24.30;13.27;;;;;;;-148.88;100.00;75890.97;5020091;28;20060;-79
2023/03/19 00:38:35;;;;;;;22.98;13.35;;;;;;;-148.88;100.00;75886.91;5020905;28;20017;-79
2023/03/19 00:41:01;;;;;;;20.25;12.13;;;;;;;-148.88;100.00;75890.97;5038127;28;20033;-78
2023/03/19 00:43:27;;;;;;;22.60;13.13;;;;;;;-148.88;100.00;75895.03;5037270;28;20026;-78
2023/03/19 00:45:53;;;;;;;27.35;22.35;;;;;;;-148.88;100.00;75895.03;5017532;28;20025;-78
2023/03/19 00:48:19;;;;;;;25.77;22.48;;;;;;;-148.88;100.00;75895.03;5036223;28;20033;-78
2023/03/19 00:50:44;;;;;;;24.17;12.68;;;;;;;-148.88;100.00;75899.09;5019125;28;20040;-78
2023/03/19 00:53:10;;;;;;;25.33;21.55;;;;;;;-148.88;100.00;75907.22;5036513;28;20025;-79
2023/03/19 00:55:35;;;;;;;27.38;22.45;;;;;;;-148.88;100.00;75895.03;5036806;28;20033;-78
2023/03/19 00:58:01;;;;;;;19.48;12.02;;;;;;;-148.88;100.00;75893.00;5020071;28;20090;-79
2023/03/19 01:00:26;;;;;;;21.55;11.68;;;;;;;-148.88;100.00;75905.19;5019714;28;20463;-79
2023/03/19 01:02:51;;;;;;;23.38;19.33;;;;;;;-148.88;100.00;75915.34;5019878;28;20463;-80
2023/03/19 01:05:17;;;;;;;19.05;10.05;;;;;;;-148.88;100.00;75907.22;5038808;28;20025;-80
2023/03/19 01:07:42;;;;;;;17.38;11.15;;;;;;;-148.88;100.00;75921.44;5020202;28;20052;-79
2023/03/19 01:10:08;;;;;;;20.90;17.88;;;;;;;-148.88;100.00;75915.34;5038393;28;20029;-79
2023/03/19 01:12:34;;;;;;;19.50;17.42;;;;;;;-148.88;100.00;75931.59;5036966;28;20045;-79
2023/03/19 01:15:00;;;;;;;15.93;9.90;;;;;;;-148.88;100.00;75935.66;5020021;28;20021;-78
2023/03/19 01:17:25;;;;;;;21.10;17.88;;;;;;;-148.88;100.00;75935.66;5020781;28;20021;-80
2023/03/19 01:19:51;;;;;;;16.38;10.02;;;;;;;-148.88;100.00;75931.59;5038525;28;20139;-78
2023/03/19 01:22:17;;;;;;;15.95;10.75;;;;;;;-148.88;100.00;75943.78;5035022;28;20081;-79
2023/03/19 01:24:42;;;;;;;23.60;20.48;;;;;;;-148.88;100.00;75935.66;5035957;28;20028;-78
2023/03/19 01:27:08;;;;;;;22.90;20.38;;;;;;;-148.88;100.00;75933.63;5019133;28;20377;-80
2023/03/19 01:29:33;;;;;;;19.48;12.00;;;;;;;-148.88;100.00;75935.66;5019554;28;20109;-80
2023/03/19 01:31:59;;;;;;;24.00;20.85;;;;;;;-148.88;100.00;75882.84;5037624;28;20396;-78
2023/03/19 01:34:24;;;;;;;24.55;21.83;;;;;;;-148.88;100.00;75919.41;5037507;28;20072;-79
2023/03/19 01:36:49;;;;;;;23.33;11.25;;;;;;;-148.88;100.00;75935.66;5019360;28;20033;-80
2023/03/19 01:39:15;;;;;;;19.95;12.05;;;;;;;-148.88;100.00;75895.03;5037301;28;20018;-79
2023/03/19 01:41:40;;;;;;;25.35;21.88;;;;;;;-148.88;100.00;75905.19;5037359;28;20055;-79
2023/03/19 01:44:30;;;;;;;26.05;22.83;;;;;;;-148.88;100.00;75897.06;5019101;28;20025;-80
2023/03/19 01:46:57;;;;;;;26.10;21.65;;;;;;;-148.88;100.00;75886.91;5036894;28;20032;-79
2023/03/19 01:49:26;;;;;;;19.10;11.27;;;;;;;-148.88;100.00;75903.16;5037410;28;20083;-79
2023/03/19 01:51:52;;;;;;;17.17;10.50;;;;;;;-148.88;100.00;75905.19;5037245;28;20026;-80
2023/03/19 01:54:21;;;;;;;23.38;20.30;;;;;;;-148.88;100.00;75909.25;5036954;28;20025;-78
2023/03/19 01:56:50;;;;;;;20.98;11.60;;;;;;;-148.88;100.00;75911.28;5018587;28;20479;-79
2023/03/19 01:59:24;;;;;;;16.23;9.82;;;;;;;-148.88;100.00;75911.28;5034234;28;20101;-78
2023/03/19 02:02:00;;;;;;;23.80;18.83;;;;;;;-148.88;100.00;75923.47;5034921;28;20061;-79
2023/03/19 02:04:27;;;;;;;22.48;20.08;;;;;;;-148.88;100.00;75941.75;5018089;28;20025;-79
2023/03/19 02:06:57;;;;;;;20.58;11.95;;;;;;;-148.88;100.00;75953.94;5036093;28;20025;-79
2023/03/19 02:09:23;;;;;;;18.77;11.23;;;;;;;-148.88;100.00;75949.88;5018630;28;20031;-78
2023/03/19 02:11:49;;;;;;;25.20;20.27;;;;;;;-148.88;100.00;75943.78;5018742;28;20043;-80
2023/03/19 02:14:15;;;;;;;17.60;10.88;;;;;;;-148.88;100.00;75941.75;5019194;28;20554;-80
2023/03/19 02:16:41;;;;;;;17.05;10.23;;;;;;;-148.88;100.00;75935.66;5037714;28;20029;-79
2023/03/19 02:19:12;;;;;;;15.68;9.68;;;;;;;-148.88;100.00;75939.72;5019700;28;20033;-79
2023/03/19 02:21:37;;;;;;;13.60;9.43;;;;;;;-148.88;100.00;75937.69;5037108;28;20025;-79
2023/03/19 02:24:10;;;;;;;18.75;16.75;;;;;;;-148.88;100.00;75947.84;5019834;28;20063;-79
2023/03/19 02:26:36;;;;;;;13.88;8.57;;;;;;;-148.88;100.00;75949.88;5036587;28;20048;-80
2023/03/19 02:29:02;;;;;;;19.83;15.43;;;;;;;-148.88;100.00;75951.91;5036811;28;20121;-80
2023/03/19 02:31:28;;;;;;;14.35;8.77;;;;;;;-148.88;100.00;75953.94;5037317;28;20121;-79
2023/03/19 02:34:04;;;;;;;15.68;8.77;;;;;;;-148.88;100.00;75951.91;5035616;28;20025;-78
2023/03/19 02:36:46;;;;;;;14.10;8.18;;;;;;;-148.88;100.00;75945.81;5040028;28;20033;-79
2023/03/19 02:39:22;;;;;;;19.38;16.58;;;;;;;-148.88;100.00;75949.88;5043077;28;20036;-79
2023/03/19 02:41:50;;;;;;;18.75;16.10;;;;;;;-148.88;100.00;75955.97;5024426;28;20022;-80
2023/03/19 02:44:18;;;;;;;18.60;16.63;;;;;;;-148.88;100.00;75964.09;5023390;28;20023;-80
2023/03/19 02:46:44;;;;;;;15.93;9.60;;;;;;;-148.88;100.00;75984.41;5023030;28;20033;-80
2023/03/19 02:49:10;;;;;;;15.63;9.35;;;;;;;-148.88;100.00;75980.34;5022528;28;20104;-80
2023/03/19 02:51:36;;;;;;;18.83;16.83;;;;;;;-148.88;100.00;76000.66;5040394;28;20075;-79
2023/03/19 02:54:02;;;;;;;12.77;8.50;;;;;;;-148.88;100.00;75980.34;5040426;28;20017;-80
2023/03/19 02:56:27;;;;;;;17.27;15.43;;;;;;;-148.88;100.00;75986.44;5022659;28;20083;-79
2023/03/19 02:58:53;;;;;;;24.58;18.52;;;;;;;-148.88;100.00;75992.53;5022725;28;20022;-80
2023/03/19 03:01:18;;;;;;;23.42;18.90;;;;;;;-148.88;100.00;76045.34;5022433;28;20484;-80
2023/03/19 03:03:43;;;;;;;18.42;10.82;;;;;;;-148.88;100.00;76065.66;5022155;28;20021;-80
2023/03/19 03:06:08;;;;;;;17.65;10.90;;;;;;;-148.88;100.00;76065.66;5040597;28;20037;-79
2023/03/19 03:08:35;;;;;;;21.23;12.00;;;;;;;-148.88;100.00;76065.66;5039952;28;20025;-80
2023/03/19 03:11:01;;;;;;;21.08;11.23;;;;;;;-148.88;100.00;76051.44;5037045;28;20508;-78
2023/03/19 03:13:27;;;;;;;20.73;11.95;;;;;;;-148.88;100.00;76057.53;5038119;28;20060;-79
2023/03/19 03:15:52;;;;;;;18.70;11.30;;;;;;;-148.88;100.00;76057.53;5024524;28;20120;-79
2023/03/19 03:18:18;;;;;;;19.58;11.00;;;;;;;-148.88;100.00;76053.47;5050590;28;20042;-79
2023/03/19 03:20:44;;;;;;;21.08;10.40;;;;;;;-148.88;100.00;76055.50;5052946;28;20040;-79
2023/03/19 03:23:10;;;;;;;24.20;17.33;;;;;;;-148.88;100.00;76047.38;5026613;28;20510;-80
2023/03/19 03:25:36;;;;;;;17.52;10.27;;;;;;;-148.88;100.00;76049.41;5040976;28;20151;-80
2023/03/19 03:28:02;;;;;;;18.45;9.57;;;;;;;-148.88;100.00;76045.34;4990251;28;20101;-79
2023/03/19 03:30:28;;;;;;;16.95;9.07;;;;;;;-148.88;100.00;76047.38;5022362;28;20065;-80
2023/03/19 03:32:53;;;;;;;15.90;9.00;;;;;;;-148.88;100.00;76049.41;5022311;28;20021;-81
2023/03/19 03:35:21;;;;;;;19.00;9.73;;;;;;;-148.88;100.00;76049.41;5022148;28;20030;-81
2023/03/19 03:37:48;;;;;;;18.38;9.70;;;;;;;-148.88;100.00;76049.41;5021734;28;20392;-81
2023/03/19 03:40:14;;;;;;;17.42;10.13;;;;;;;-148.88;100.00;76049.41;5021776;28;20021;-80
2023/03/19 03:42:41;;;;;;;17.92;15.02;;;;;;;-148.88;100.00;76055.50;5021661;28;20128;-80
2023/03/19 03:45:08;;;;;;;17.35;8.95;;;;;;;-148.88;100.00;76055.50;5039132;28;20494;-80
2023/03/19 03:47:34;;;;;;;13.82;9.23;;;;;;;-148.88;100.00;76051.44;5018618;28;20128;-79
2023/03/19 03:50:00;;;;;;;13.70;8.60;;;;;;;-148.88;100.00;76045.34;5018939;28;20029;-80
2023/03/19 03:52:30;;;;;;;14.23;8.65;;;;;;;-148.88;100.00;76049.41;5037950;28;20021;-79
2023/03/19 03:54:58;;;;;;;14.13;8.00;;;;;;;-148.88;100.00;76047.38;5019726;28;20049;-79
2023/03/19 03:57:24;;;;;;;14.45;12.55;;;;;;;-148.88;100.00;76053.47;5037552;28;20515;-79
2023/03/19 03:59:50;;;;;;;11.88;7.32;;;;;;;-148.88;100.00;76053.47;5020373;28;20495;-80
2023/03/19 04:02:15;;;;;;;14.35;7.95;;;;;;;-148.88;100.00;76057.53;5039084;28;20018;-80
2023/03/19 04:04:40;;;;;;;13.27;7.75;;;;;;;-148.88;100.00;76055.50;5020810;28;20017;-79
2023/03/19 04:07:06;;;;;;;15.13;7.55;;;;;;;-148.88;100.00;76059.56;5038802;28;20028;-79
2023/03/19 04:09:31;;;;;;;14.18;11.68;;;;;;;-148.88;100.00;76057.53;5038958;28;20144;-80
2023/03/19 04:11:57;;;;;;;14.82;6.78;;;;;;;-148.88;100.00;76051.44;5042574;22;20050;-83
2023/03/19 04:14:22;;;;;;;15.32;11.73;;;;;;;-148.88;100.00;76053.47;5015318;28;20028;-83
2023/03/19 04:16:47;;;;;;;12.63;6.60;;;;;;;-148.88;100.00;76049.41;5015992;28;20028;-83
2023/03/19 04:19:13;;;;;;;10.90;6.97;;;;;;;-148.88;100.00;76047.38;5015606;28;20469;-83
2023/03/19 04:21:38;;;;;;;10.80;7.10;;;;;;;-148.88;100.00;76045.34;5015483;28;20026;-83
2023/03/19 04:24:04;;;;;;;12.07;6.85;;;;;;;-148.88;100.00;76041.28;5013148;28;20060;-83
2023/03/19 04:26:29;;;;;;;11.30;6.65;;;;;;;-148.88;100.00;76045.34;5013075;28;20060;-83
2023/03/19 04:28:54;;;;;;;13.90;6.45;;;;;;;-148.88;100.00;76051.44;5014260;28;20041;-83
2023/03/19 04:31:19;;;;;;;12.57;7.25;;;;;;;-148.88;100.00;76057.53;5013659;28;20222;-83
2023/03/19 04:33:45;;;;;;;11.52;6.85;;;;;;;-148.88;100.00;76061.59;5014477;28;20053;-83
2023/03/19 04:36:10;;;;;;;12.75;7.13;;;;;;;-148.88;100.00;76061.59;5014519;28;20034;-83
2023/03/19 04:38:37;;;;;;;15.25;7.10;;;;;;;-148.88;100.00;76059.56;5013246;28;20116;-83
2023/03/19 04:41:03;;;;;;;12.35;6.28;;;;;;;-148.88;100.00;76053.47;5014772;28;20153;-83
2023/03/19 04:43:28;;;;;;;11.45;6.25;;;;;;;-148.88;100.00;76057.53;5015056;28;20545;-83
2023/03/19 04:45:54;;;;;;;9.50;6.32;;;;;;;-148.88;100.00;76065.66;5014506;28;20144;-83
2023/03/19 04:48:20;;;;;;;15.98;5.97;;;;;;;-148.88;100.00;76053.47;5015116;28;20064;-83
2023/03/19 04:50:46;;;;;;;10.55;5.93;;;;;;;-148.88;100.00;76043.31;5013408;28;20160;-84
2023/03/19 04:53:11;;;;;;;11.48;5.75;;;;;;;-148.88;100.00;76045.34;5014586;28;20040;-83
2023/03/19 04:55:37;;;;;;;10.75;5.28;;;;;;;-148.88;100.00;76049.41;5014941;28;20022;-83
2023/03/19 04:58:02;;;;;;;9.77;5.47;;;;;;;-148.88;100.00;76049.41;5013089;28;20021;-83
2023/03/19 05:00:29;;;;;;;9.65;5.15;;;;;;;-148.88;100.00;76053.47;5013184;28;20504;-83
2023/03/19 05:02:54;;;;;;;9.52;5.28;;;;;;;-148.88;100.00;76051.44;5013688;28;20022;-83
2023/03/19 05:05:20;;;;;;;10.38;5.22;;;;;;;-148.88;100.00;76049.41;5013801;28;20124;-83
2023/03/19 05:07:46;;;;;;;11.40;5.75;;;;;;;-148.88;100.00;76053.47;5013804;28;20396;-83
2023/03/19 05:10:13;;;;;;;9.55;5.57;;;;;;;-148.88;100.00;76047.38;5015586;28;20057;-83
2023/03/19 05:12:39;;;;;;;10.20;5.43;;;;;;;-148.88;100.00;76057.53;5013991;28;20373;-84
2023/03/19 05:15:05;;;;;;;9.77;5.78;;;;;;;-148.88;100.00;76057.53;5014668;28;20018;-83
2023/03/19 05:17:31;;;;;;;11.20;6.03;;;;;;;-148.88;100.00;76059.56;5018250;28;20403;-84
2023/03/19 05:19:56;;;;;;;7.93;4.97;;;;;;;-148.88;100.00;76055.50;5019163;28;20021;-84
2023/03/19 05:22:23;;;;;;;10.52;5.68;;;;;;;-148.88;100.00;76061.59;5021611;28;20021;-83
2023/03/19 05:24:49;;;;;;;12.63;6.68;;;;;;;-148.88;100.00;76061.59;5017089;28;20021;-83
2023/03/19 05:27:15;;;;;;;9.02;5.43;;;;;;;-148.88;100.00;76065.66;5016602;28;20029;-83
2023/03/19 05:29:41;;;;;;;11.15;6.28;;;;;;;-148.88;100.00;76065.66;5015079;28;20145;-83
2023/03/19 05:32:09;;;;;;;11.05;5.57;;;;;;;-148.88;100.00;76077.84;5012975;28;20025;-83
2023/03/19 05:34:35;;;;;;;8.50;5.32;;;;;;;-148.88;100.00;76077.84;5013661;28;20033;-83
2023/03/19 05:37:00;;;;;;;10.02;5.57;;;;;;;-148.88;100.00;76081.91;5012185;28;20026;-83
2023/03/19 05:39:25;;;;;;;11.55;6.40;;;;;;;-148.88;100.00;76088.00;5013432;28;20018;-83
2023/03/19 05:41:51;;;;;;;11.40;6.22;;;;;;;-148.88;100.00;76090.03;5012485;28;20124;-83
2023/03/19 05:44:17;;;;;;;9.57;5.65;;;;;;;-148.88;100.00;76098.16;5014264;28;20106;-83
2023/03/19 05:46:42;;;;;;;11.38;5.95;;;;;;;-148.88;100.00;76102.22;5019354;28;20030;-83
2023/03/19 05:49:08;;;;;;;11.05;5.75;;;;;;;-148.88;100.00;76110.34;5014517;28;20030;-83
2023/03/19 05:51:34;;;;;;;12.02;6.32;;;;;;;-148.88;100.00;76112.41;5020511;28;20026;-84
2023/03/19 05:53:59;;;;;;;12.65;6.35;;;;;;;-148.88;100.00;76118.47;5020836;28;20018;-83
2023/03/19 05:56:25;;;;;;;12.15;6.80;;;;;;;-148.88;100.00;76126.59;5023972;28;20052;-83
2023/03/19 05:58:50;;;;;;;13.00;6.78;;;;;;;-148.88;100.00;76126.59;5015531;28;20037;-83
2023/03/19 06:01:15;;;;;;;12.48;6.50;;;;;;;-148.88;100.00;76130.69;5016745;28;20021;-81
2023/03/19 06:03:41;;;;;;;10.88;6.18;;;;;;;-148.88;100.00;76128.66;5020354;28;20421;-80
2023/03/19 06:06:06;;;;;;;15.40;7.28;;;;;;;-148.88;100.00;76132.72;5025435;28;20018;-81
2023/03/19 06:08:32;;;;;;;14.57;7.13;;;;;;;-148.88;100.00;76130.69;5024026;28;20018;-81
2023/03/19 06:10:57;;;;;;;12.25;9.98;;;;;;;-148.88;100.00;76128.66;5027100;28;20033;-81
2023/03/19 06:13:22;;;;;;;13.32;7.07;;;;;;;-148.88;100.00;76122.56;5018271;28;20034;-80
2023/03/19 06:15:48;;;;;;;11.63;7.00;;;;;;;-148.88;100.00;76122.56;5017102;28;20018;-80
2023/03/19 06:18:15;;;;;;;11.50;6.82;;;;;;;-148.88;100.00;76118.47;5015647;28;20034;-80
2023/03/19 06:20:46;;;;;;;12.70;9.80;;;;;;;-148.88;100.00;76110.34;5018673;28;20032;-81
2023/03/19 06:23:12;;;;;;;10.75;6.35;;;;;;;-148.88;100.00;76114.41;5028418;28;20519;-81
2023/03/19 06:25:37;;;;;;;12.73;9.88;;;;;;;-148.88;100.00;76098.16;5029627;28;20034;-81
2023/03/19 06:28:05;;;;;;;9.50;5.72;;;;;;;-148.88;100.00;76094.09;5029584;28;20061;-81
2023/03/19 06:30:30;;;;;;;10.68;5.78;;;;;;;-148.88;100.00;76077.84;5028263;28;20024;-81
2023/03/19 06:32:56;;;;;;;12.27;5.82;;;;;;;-148.88;100.00;76077.84;5028926;28;20026;-82
2023/03/19 06:35:23;;;;;;;11.52;5.82;;;;;;;-148.88;100.00;76069.72;5027561;28;20408;-82
2023/03/19 06:37:48;;;;;;;10.50;5.90;;;;;;;-148.88;100.00;76065.66;5024635;28;20030;-81
2023/03/19 06:40:15;;;;;;;12.60;6.13;;;;;;;-148.88;100.00;76057.53;5030386;28;20026;-82
2023/03/19 06:42:48;;;;;;;8.93;5.45;;;;;;;-148.88;100.00;76057.53;5028421;28;20053;-82
2023/03/19 06:45:15;;;;;;;;;;;;;;;-148.88;100.00;76049.41;5024073;28;20034;-81
2023/03/19 06:47:42;;;;;;;10.30;5.70;;;;;;;-148.88;100.00;76033.16;5024172;28;19966;-82
2023/03/19 06:50:09;;;;;;;13.82;5.35;;;;;;;-148.88;100.00;76020.97;5016428;28;20050;-80
2023/03/19 06:52:35;;;;;;;8.45;5.13;;;;;;;-148.88;100.00;76008.78;5016064;28;20107;-81
2023/03/19 06:55:00;;;;;;;12.15;7.75;;;;;;;-148.88;100.00;75982.38;5014720;28;20026;-80
2023/03/19 06:57:26;;;;;;;9.07;4.80;;;;;;;-148.88;100.00;75964.09;5022555;28;20032;-81
2023/03/19 06:59:51;;;;;;;8.57;5.10;;;;;;;-148.88;100.00;75943.78;5023824;28;20033;-81
2023/03/19 07:02:17;;;;;;;8.93;5.60;;;;;;;-148.88;100.00;75929.56;5023129;28;20111;-81
2023/03/19 07:04:42;;;;;;;8.18;3.28;;;;;;;-148.88;100.00;75909.25;5023718;28;20452;-81
2023/03/19 07:07:07;;;;;;;11.70;5.82;;;;;;;-148.88;100.00;75895.03;5023263;28;20033;-81
2023/03/19 07:09:32;;;;;;;9.13;4.20;;;;;;;-148.88;100.00;75882.84;5024634;28;20030;-81
2023/03/19 07:11:58;;;;;;;8.02;4.55;;;;;;;-148.88;100.00;75874.72;5022851;28;20030;-81
2023/03/19 07:14:23;;;;;;;8.77;4.28;;;;;;;-148.88;100.00;75866.59;5022908;28;20018;-81
2023/03/19 07:16:49;;;;;;;8.52;4.68;;;;;;;-148.88;100.00;75850.34;5021652;28;20117;-81
2023/03/19 07:19:14;;;;;;;8.98;4.75;;;;;;;-148.88;100.00;75842.22;5022788;28;20086;-81
2023/03/19 07:21:40;;;;;;;6.47;3.30;;;;;;;-148.88;100.00;75850.34;5023509;28;20030;-80
2023/03/19 07:24:06;;;;;;;8.52;4.45;;;;;;;-148.88;100.00;75854.41;5022184;28;20075;-81
2023/03/19 07:26:31;;;;;;;7.05;4.57;;;;;;;-148.88;100.00;75854.41;5015654;28;20030;-80
2023/03/19 07:28:56;;;;;;;8.15;4.53;;;;;;;-148.88;100.00;75858.47;5015541;28;20096;-79
2023/03/19 07:31:22;;;;;;;6.93;3.53;;;;;;;-148.88;100.00;75846.28;5015442;28;20021;-79
2023/03/19 07:33:47;;;;;;;8.35;4.70;;;;;;;-148.88;100.00;75846.28;5023585;28;20022;-80
2023/03/19 07:36:12;;;;;;;9.73;4.80;;;;;;;-148.88;100.00;75842.22;5023900;28;20443;-81
2023/03/19 07:38:37;;;;;;;5.85;3.50;;;;;;;-148.88;100.00;75850.34;5025321;28;20037;-82
2023/03/19 07:41:03;;;;;;;6.78;3.90;;;;;;;-148.88;100.00;75842.22;5023921;28;20026;-81
2023/03/19 07:43:30;;;;;;;7.72;3.35;;;;;;;-148.88;100.00;75838.16;5023021;28;20029;-81
2023/03/19 07:45:57;;;;;;;8.10;3.33;;;;;;;-148.88;100.00;75823.94;5022099;28;20120;-81
2023/03/19 07:48:23;;;;;;;6.35;4.47;;;;;;;-148.88;100.00;75817.84;5020849;28;20092;-81
2023/03/19 07:50:51;;;;;;;9.35;4.80;;;;;;;-148.88;100.00;75811.75;5022526;28;20322;-81
2023/03/19 07:53:17;;;;;;;6.03;3.53;;;;;;;-148.88;100.00;75809.72;5020872;28;20041;-81
2023/03/19 07:55:42;;;;;;;5.82;3.88;;;;;;;-148.88;100.00;75797.53;5021352;28;20025;-81
2023/03/19 07:58:07;;;;;;;9.43;4.60;;;;;;;-148.88;100.00;75793.47;5022005;28;20025;-81
2023/03/19 08:00:33;;;;;;;7.57;4.30;;;;;;;-148.88;100.00;75785.34;5021181;28;20029;-81
2023/03/19 08:02:58;;;;;;;5.22;3.97;;;;;;;-148.88;100.00;75769.09;5014907;28;20029;-80
2023/03/19 08:05:23;;;;;;;6.38;3.97;;;;;;;-148.88;100.00;75752.84;5014562;28;20022;-81
2023/03/19 08:07:50;;;;;;;6.95;4.40;;;;;;;-148.88;100.00;75744.72;5015178;28;20032;-81
2023/03/19 08:10:16;;;;;;;7.30;4.40;;;;;;;-148.88;100.00;75724.41;5021746;28;20018;-81
2023/03/19 08:12:41;;;;;;;6.40;4.40;;;;;;;-148.88;100.00;75700.03;5019550;28;20037;-81
2023/03/19 08:15:08;;;;;;;6.43;3.92;;;;;;;-148.88;100.00;75689.88;5020897;28;20025;-81
2023/03/19 08:17:37;;;;;;;5.10;3.72;;;;;;;-148.88;100.00;75675.66;5019969;28;20053;-81
2023/03/19 08:20:04;;;;;;;6.13;4.38;;;;;;;-148.88;100.00;75675.66;5020217;28;20035;-81
2023/03/19 08:22:29;;;;;;;5.35;4.40;;;;;;;-148.88;100.00;75675.66;5021760;28;20029;-82
2023/03/19 08:24:55;;;;;;;8.23;4.57;;;;;;;-148.88;100.00;75659.41;5020685;28;20052;-81
2023/03/19 08:27:20;;;;;;;8.15;4.60;;;;;;;-148.88;100.00;75639.09;5021232;28;20034;-81
2023/03/19 08:29:46;;;;;;;6.80;4.80;;;;;;;-148.88;100.00;75645.19;5020146;28;20034;-81
2023/03/19 08:32:11;;;;;;;6.15;4.78;;;;;;;-148.88;100.00;75645.19;5019861;28;20034;-81
2023/03/19 08:34:37;;;;;;;7.70;4.70;;;;;;;-148.88;100.00;75639.09;5020398;28;20026;-81
2023/03/19 08:37:03;;;;;;;6.90;4.65;;;;;;;-148.88;100.00;75618.78;5019163;28;20042;-81
2023/03/19 08:39:28;;;;;;;8.35;5.00;;;;;;;-148.88;100.00;75618.78;5012685;28;20072;-80
2023/03/19 08:41:53;;;;;;;7.60;5.18;;;;;;;-148.88;100.00;75610.66;5012860;28;20026;-80
2023/03/19 08:44:19;;;;;;;8.77;5.45;;;;;;;-148.88;100.00;75594.44;5016304;28;20029;-81
2023/03/19 08:46:44;;;;;;;7.38;5.40;;;;;;;-148.88;100.00;75598.47;5021990;28;20022;-81
2023/03/19 08:49:09;;;;;;;7.00;5.07;;;;;;;-148.88;99.96;75588.34;5020697;28;20065;-81
2023/03/19 08:51:35;;;;;;;8.48;5.35;;;;;;;-148.88;100.00;75596.44;5020532;28;20052;-82
2023/03/19 08:54:00;;;;;;;8.48;5.35;;;;;;;-148.88;99.76;75598.47;5023167;28;20049;-83
2023/03/19 08:56:25;;;;;;;8.27;5.32;;;;;;;-148.88;100.00;75559.91;5020952;28;20061;-82
2023/03/19 08:58:51;;;;;;;7.38;5.78;;;;;;;-148.88;98.46;75543.66;5022429;28;20034;-82
2023/03/19 09:01:16;;;;;;;9.82;6.03;;;;;;;-148.88;99.95;75527.41;5021582;28;20137;-82
2023/03/19 09:03:43;;;;;;;9.32;6.10;;;;;;;-148.88;97.01;75505.06;5020624;28;20053;-82
2023/03/19 09:06:10;;;;;;;8.27;5.35;;;;;;;-148.88;96.03;75519.28;5018165;28;20021;-82
2023/03/19 09:08:36;;;;;;;8.23;4.93;;;;;;;-148.88;95.30;75507.09;5018320;28;20022;-81
2023/03/19 09:11:02;;;;;;;7.22;4.97;;;;;;;-148.88;96.86;75525.38;5018709;28;20107;-82
2023/03/19 09:13:28;;;;;;;9.90;5.43;;;;;;;-148.88;95.90;75517.25;5015414;28;20037;-82
2023/03/19 09:15:53;;;;;;;8.25;5.30;;;;;;;-148.88;95.88;75533.50;5012242;28;20068;-82
2023/03/19 09:18:25;;;;;;;6.95;5.07;;;;;;;-148.88;96.60;75535.53;5012354;28;20057;-83
2023/03/19 09:20:52;;;;;;;7.07;5.20;;;;;;;-148.88;98.28;75561.94;5017583;28;20054;-81
2023/03/19 09:23:18;;;;;;;7.60;4.80;;;;;;;-148.88;97.13;75557.88;5016622;28;20464;-81
2023/03/19 09:25:44;;;;;;;6.50;4.80;;;;;;;-148.88;95.57;75559.91;5013305;28;20506;-82
2023/03/19 09:28:10;;;;;;;7.13;4.72;;;;;;;-148.88;96.81;75561.94;5012867;28;20033;-82
2023/03/19 09:30:35;;;;;;;5.68;4.80;;;;;;;-148.88;96.25;75572.09;5017088;28;20026;-82
2023/03/19 09:33:00;;;;;;;8.27;5.10;;;;;;;-148.88;95.91;75551.78;5014293;28;20018;-81
2023/03/19 09:35:30;;;;;;;9.82;6.60;;;;;;;-148.88;95.20;75576.13;5018961;28;20542;-80
2023/03/19 09:37:56;;;;;;;16.67;10.85;;;;;;;-148.88;96.21;75586.31;5017867;28;20480;-83
2023/03/19 09:40:35;;;;;;;11.88;8.23;;;;;;;-148.88;98.28;75586.31;5015623;28;20593;-82
2023/03/19 09:43:25;;;;;;;9.40;6.82;;;;;;;-148.88;99.06;75574.13;5015662;28;20033;-83
2023/03/19 09:45:50;;;;;;;7.25;5.68;;;;;;;-148.88;97.63;75586.31;5015303;28;20030;-83
2023/03/19 09:48:30;;;;;;;9.32;5.95;;;;;;;-148.88;98.04;75598.47;5017272;28;20025;-83
2023/03/19 09:50:56;;;;;;;7.35;5.40;;;;;;;-148.88;97.42;75578.19;5017580;28;20108;-83
2023/03/19 09:53:47;;;;;;;9.00;5.88;;;;;;;-148.88;97.49;75594.44;5017351;28;20399;-83
2023/03/19 09:56:15;;;;;;;9.80;5.63;;;;;;;-148.88;96.28;75576.13;5017032;28;20029;-82
2023/03/19 09:58:41;;;;;;;8.05;5.60;;;;;;;-148.88;96.50;75566.00;5017814;28;20026;-81
2023/03/19 10:01:22;;;;;;;8.00;5.95;;;;;;;-148.88;96.45;75574.13;5013967;28;20044;-82
2023/03/19 10:04:17;;;;;;;10.27;6.20;;;;;;;-148.88;95.96;75553.81;5017295;28;20030;-82
2023/03/19 10:06:43;;;;;;;8.35;5.63;;;;;;;-148.88;95.25;75549.75;5017872;28;20036;-83
2023/03/19 10:09:46;;;;;;;8.40;6.38;;;;;;;-148.88;95.06;75537.56;5014978;28;20108;-81
2023/03/19 10:12:20;;;;;;;8.50;6.87;;;;;;;-148.88;94.72;75553.81;4999952;28;20034;-81
2023/03/19 10:15:23;;;;;;;10.00;7.60;;;;;;;-148.88;95.69;75576.13;5017192;28;20479;-82
2023/03/19 10:18:14;;;;;;;10.52;8.65;;;;;;;-148.88;95.77;75570.03;5019161;28;20029;-82
2023/03/19 10:20:43;;;;;;;11.18;8.73;;;;;;;-148.88;95.89;75561.94;5019440;28;20033;-84
2023/03/19 10:23:14;;;;;;;10.52;8.63;;;;;;;-148.88;96.03;75555.84;5017376;28;20101;-83
2023/03/19 10:25:41;;;;;;;9.70;8.13;;;;;;;-148.88;95.38;75521.31;5017659;28;20021;-83
2023/03/19 10:28:14;;;;;;;10.00;7.93;;;;;;;-148.88;92.90;75505.06;5015018;28;20053;-84
2023/03/19 10:30:40;;;;;;;9.43;6.13;;;;;;;-148.88;91.67;75496.94;5001451;28;20021;-84
2023/03/19 10:33:25;;;;;;;14.85;13.63;;;;;;;-148.88;91.78;75460.38;5016202;28;20029;-83
2023/03/19 10:36:00;;;;;;;7.63;5.32;;;;;;;-148.88;91.42;75480.69;5014984;28;20029;-84
2023/03/19 10:38:26;;;;;;;5.60;4.72;;;;;;;-148.88;92.31;75484.75;5014845;28;20030;-83
2023/03/19 10:41:10;;;;;;;8.70;5.38;;;;;;;-148.88;90.75;75474.59;5016608;28;20040;-83
2023/03/19 10:43:38;;;;;;;7.78;5.78;;;;;;;-148.88;91.22;75468.50;5017233;28;20022;-83
2023/03/19 10:46:03;;;;;;;6.55;4.82;;;;;;;-148.88;91.68;75470.53;5016222;28;20480;-84
2023/03/19 10:48:29;;;;;;;7.90;5.75;;;;;;;-148.88;93.20;75476.63;5014749;28;20049;-83
2023/03/19 10:51:00;;;;;;;5.32;4.55;;;;;;;-148.88;90.65;75503.03;5014850;28;20076;-83
2023/03/19 10:53:37;;;;;;;6.88;5.53;;;;;;;-148.88;93.50;75503.03;5016694;28;20060;-83
2023/03/19 10:56:15;;;;;;;7.60;5.47;;;;;;;-148.88;94.12;75488.81;5032157;28;20026;-83
2023/03/19 10:58:40;;;;;;;6.15;5.50;;;;;;;-148.88;93.97;75492.88;5015970;28;20108;-83
2023/03/19 11:01:10;;;;;;;7.95;6.13;;;;;;;-148.88;94.47;75505.06;5016778;28;20392;-83
2023/03/19 11:03:37;;;;;;;7.97;5.05;;;;;;;-148.88;92.07;75476.63;5016083;28;20244;-83
2023/03/19 11:06:17;;;;;;;7.35;5.32;;;;;;;-148.88;91.26;75492.88;5017084;28;20033;-83